PORTS® Data Listing: 8452660 Newport, RI

CO-OPS RAW PORTS DATA

************************      PRELIMINARY DATA      ************************** 

     THIS RAW DATA HAS NOT BEEN SUBJECT TO THE NATIONAL OCEAN SERVICE'S        
     QUALITY CONTROL OR QUALITY ASSURANCE PROCEDURES AND DOES NOT MEET         
     THE CRITERIA AND STANDARDS OF OFFICIAL NATIONAL OCEAN SERVICE             
     DATA.  IT IS RELEASED FOR LIMITED PUBLIC USE AS PRELIMINARY DATA TO       
     BE USED ONLY WITH APPROPRIATE CAUTION.                                    

************************      PRELIMINARY DATA      ************************** 


       CD   -   Calendar date
       T    -   Time
       TZ   -   Timezone
       PW   -   Predicted water level (feet above MLLW)
       OW   -   Observed water level (feet above MLLW)
       WS   -   Wind speed (knots)
       WD   -   Wind direction (degrees true)
       WG   -   Wind gust (knots)
       AT   -   Air temperature (degrees farenheit)
       WT   -   Water temperature (degrees farenheit)
       AP   -   Air pressure (millibars)
       SA   -   Salinty (PSU - Practical Salinity Units)
       SG   -   Specific gravity
       RH   -   Relative humidity
       AG   -   Air gap (feet)
       VI   -   Visibility (nautical miles)

       ** NOTE **
       A variable that has its data fields filled with "9"s, indicates that
       data was not collected for that sample period.
       **********


STATION NAME: Newport (8452660)
****************************************************************************************************
    CD       T    TZ    PW     OW    WS   WD   WG    AT    WT    AP    SA    SG     RH    AG   VI
****************************************************************************************************
2019/11/17 07:18 EST    1.77   2.21    8   17   11  31.3  44.8 1029.5 33.5  1.027 -99.9 -99.99 -9.99
2019/11/17 07:24 EST    1.83   2.30    9   16   11  31.6  45.5 1029.4 32.7  1.026 -99.9 -99.99 -9.99
2019/11/17 07:30 EST    1.90   2.47    9    9   12  31.6  45.3 1029.4 32.4  1.026 -99.9 -99.99 -9.99
2019/11/17 07:36 EST    1.97   2.42   10   15   15  31.3  45.1 1029.4 32.4  1.026 -99.9 -99.99 -9.99
2019/11/17 07:42 EST    2.03   2.59   11   16   15  31.8  44.8 1029.5 32.6  1.026 -99.9 -99.99 -9.99
2019/11/17 07:48 EST    2.10   2.69    9   11   14  31.8  45.9 1029.5 32.6  1.026 -99.9 -99.99 -9.99
2019/11/17 07:54 EST    2.17   2.76    8   12   11  32.2  45.5 1029.6 33.0  1.027 -99.9 -99.99 -9.99
2019/11/17 08:00 EST    2.24   2.88   11   20   15  32.2  45.3 1029.5 33.7  1.027 -99.9 -99.99 -9.99
2019/11/17 08:06 EST    2.32   2.89   11   20   15  32.2  45.5 1029.6 33.2  1.027 -99.9 -99.99 -9.99
2019/11/17 08:12 EST    2.39   2.99   10   13   13  32.4  45.7 1029.6 32.3  1.026 -99.9 -99.99 -9.99
2019/11/17 08:18 EST    2.46   3.07   10   16   14  32.5  46.2 1029.7 32.6  1.026 -99.9 -99.99 -9.99
2019/11/17 08:24 EST    2.54   3.15    9   19   14  32.7  45.9 1029.7 32.5  1.026 -99.9 -99.99 -9.99
2019/11/17 08:30 EST    2.61   3.33   10   13   15  32.5  45.7 1029.7 32.9  1.027 -99.9 -99.99 -9.99
2019/11/17 08:36 EST    2.68   3.33   12    8   14  32.5  45.9 1029.6 32.6  1.026 -99.9 -99.99 -9.99
2019/11/17 08:42 EST    2.76   3.45    8   15   15  33.6  45.7 1029.6 32.4  1.026 -99.9 -99.99 -9.99
2019/11/17 08:48 EST    2.83   3.50    8   13   13  33.4  45.5 1029.7 32.4  1.026 -99.9 -99.99 -9.99
2019/11/17 08:54 EST    2.90   3.58    8   12   12  33.8  45.9 1029.8 32.4  1.026 -99.9 -99.99 -9.99
2019/11/17 09:00 EST    2.97   3.70   10   10   14  33.8  45.9 1029.8 32.6  1.026 -99.9 -99.99 -9.99
2019/11/17 09:06 EST    3.04   3.77   10   16   13  33.8  45.9 1029.8 32.6  1.026 -99.9 -99.99 -9.99
2019/11/17 09:12 EST    3.11   3.88   11   21   13  34.0  46.0 1029.7 32.7  1.026 -99.9 -99.99 -9.99
2019/11/17 09:18 EST    3.18   3.97    9   15   12  34.3  45.9 1029.6 32.5  1.026 -99.9 -99.99 -9.99
2019/11/17 09:24 EST    3.24   4.06   10    8   13  34.2  45.9 1029.4 32.6  1.026 -99.9 -99.99 -9.99
2019/11/17 09:30 EST    3.30   4.13    9   11   13  34.3  45.9 1029.4 33.8  1.027 -99.9 -99.99 -9.99
2019/11/17 09:36 EST    3.36   4.19   10   10   13  34.7  45.9 1029.3 33.8  1.027 -99.9 -99.99 -9.99
2019/11/17 09:42 EST    3.42   4.19    9   18   13  35.2  46.0 1029.3 32.5  1.026 -99.9 -99.99 -9.99
2019/11/17 09:48 EST    3.47   4.25   11    8   15  34.9  46.2 1029.2 32.7  1.026 -99.9 -99.99 -9.99
2019/11/17 09:54 EST    3.52   4.31   10   11   14  34.9  46.0 1029.1 32.6  1.026 -99.9 -99.99 -9.99
2019/11/17 10:00 EST    3.57   4.38   12    7   15  34.9  46.0 1029.0 32.7  1.026 -99.9 -99.99 -9.99
2019/11/17 10:06 EST    3.61   4.43   11    9   16  35.1  46.2 1028.8 33.1  1.027 -99.9 -99.99 -9.99
2019/11/17 10:12 EST    3.64   4.42   11    9   15  35.4  46.0 1028.7 32.8  1.026 -99.9 -99.99 -9.99
2019/11/17 10:18 EST    3.67   4.41   12   11   16  36.0  46.8 1028.6 32.7  1.026 -99.9 -99.99 -9.99
2019/11/17 10:24 EST    3.70   4.50   11   11   16  36.1  46.2 1028.5 32.6  1.026 -99.9 -99.99 -9.99
2019/11/17 10:30 EST    3.72   4.45   11   10   15  36.1  46.2 1028.5 32.6  1.026 -99.9 -99.99 -9.99
2019/11/17 10:36 EST    3.74   4.48   11    7   14  36.1  46.2 1028.3 32.5  1.026 -99.9 -99.99 -9.99
2019/11/17 10:42 EST    3.75   4.53   10    8   14  36.5  46.4 1028.0 32.5  1.026 -99.9 -99.99 -9.99
2019/11/17 10:48 EST    3.75   4.49   11    3   15  36.3  46.2 1028.0 32.6  1.026 -99.9 -99.99 -9.99
2019/11/17 10:54 EST    3.75   4.54   11    8   15  36.1  46.6 1028.0 32.5  1.026 -99.9 -99.99 -9.99
2019/11/17 11:00 EST    3.75   4.51   12   11   16  36.1  46.0 1027.9 32.4  1.026 -99.9 -99.99 -9.99
2019/11/17 11:06 EST    3.73   4.42    8    9   15  36.9  46.2 1027.9 32.5  1.026 -99.9 -99.99 -9.99
2019/11/17 11:12 EST    3.72   4.45   10   10   11  37.0  46.4 1027.8 32.5  1.026 -99.9 -99.99 -9.99
2019/11/17 11:18 EST    3.69   4.45   10    7   13  36.9  46.4 1027.7 32.5  1.026 -99.9 -99.99 -9.99
2019/11/17 11:24 EST    3.66   4.43    9    6   13  37.2  46.4 1027.6 32.5  1.026 -99.9 -99.99 -9.99
2019/11/17 11:30 EST    3.63   4.39    9   14   13  37.4  46.6 1027.4 32.6  1.026 -99.9 -99.99 -9.99
2019/11/17 11:36 EST    3.59   4.37   10    9   14  37.6  46.4 1027.2 32.6  1.026 -99.9 -99.99 -9.99
2019/11/17 11:42 EST    3.54   4.26   10    9   13  37.8  46.6 1027.2 32.5  1.026 -99.9 -99.99 -9.99
2019/11/17 11:48 EST    3.49   4.23    9   12   13  37.9  46.4 1027.1 32.6  1.026 -99.9 -99.99 -9.99
2019/11/17 11:54 EST    3.43   4.17   10   12   14  37.9  46.6 1027.1 32.5  1.026 -99.9 -99.99 -9.99
2019/11/17 12:00 EST    3.37   4.16    7   12   13  38.3  46.6 1027.0 32.6  1.026 -99.9 -99.99 -9.99
2019/11/17 12:06 EST    3.31   4.07    8  359   13  38.7  46.6 1026.6 32.6  1.026 -99.9 -99.99 -9.99
2019/11/17 12:12 EST    3.24   4.01    9   13   12  39.0  46.6 1026.6 32.5  1.026 -99.9 -99.99 -9.99
2019/11/17 12:18 EST    3.16   3.88    9   13   10  39.6  46.6 1026.4 33.0  1.027 -99.9 -99.99 -9.99
2019/11/17 12:24 EST    3.09   3.82   11   49   16  41.5  46.6 1026.4 32.7  1.026 -99.9 -99.99 -9.99
2019/11/17 12:30 EST    3.01   3.75    7   55   17  42.1  46.4 1026.4 32.7  1.026 -99.9 -99.99 -9.99
2019/11/17 12:36 EST    2.92   3.63    9   59   16  42.1  46.6 1026.2 32.7  1.026 -99.9 -99.99 -9.99
2019/11/17 12:42 EST    2.83   3.53   10   59   14  42.1  46.6 1026.1 32.6  1.026 -99.9 -99.99 -9.99
2019/11/17 12:48 EST    2.74   3.43    9   50   13  42.3  46.4 1025.9 32.6  1.026 -99.9 -99.99 -9.99
2019/11/17 12:54 EST    2.65   3.41   10   49   16  42.3  46.4 1025.8 32.6  1.026 -99.9 -99.99 -9.99
2019/11/17 13:00 EST    2.56   3.30   11   52   15  42.4  46.4 1025.8 32.6  1.026 -99.9 -99.99 -9.99
2019/11/17 13:06 EST    2.46   3.19   11   57   17  42.4  46.4 1025.6 32.7  1.026 -99.9 -99.99 -9.99
2019/11/17 13:12 EST    2.36   3.08   12   48   18  42.3  46.4 1025.5 32.6  1.026 -99.9 -99.99 -9.99
2019/11/17 13:18 EST    2.27   2.99   11   37   14  42.6  46.4 1025.3 32.5  1.026 -99.9 -99.99 -9.99
2019/11/17 13:24 EST    2.17   2.89   10   41   15  42.6  46.4 1025.3 32.6  1.026 -99.9 -99.99 -9.99
2019/11/17 13:30 EST    2.07   2.82    9   50   15  42.6  46.4 1025.2 32.5  1.026 -99.9 -99.99 -9.99
2019/11/17 13:36 EST    1.97   2.68   10   35   16  42.8  46.4 1025.1 32.5  1.026 -99.9 -99.99 -9.99
2019/11/17 13:42 EST    1.87   2.54    7   45   15  43.2  46.2 1025.0 32.6  1.026 -99.9 -99.99 -9.99
2019/11/17 13:48 EST    1.77   2.43    9   34   13  43.0  46.2 1024.9 32.6  1.026 -99.9 -99.99 -9.99
2019/11/17 13:54 EST    1.67   2.34   14   36   17  42.6  46.2 1024.9 32.6  1.026 -99.9 -99.99 -9.99
2019/11/17 14:00 EST    1.58   2.25   10   31   16  43.0  46.2 1024.7 32.5  1.026 -99.9 -99.99 -9.99
2019/11/17 14:06 EST    1.48   2.20   10   51   13  43.0  46.0 1024.7 32.7  1.026 -99.9 -99.99 -9.99
2019/11/17 14:12 EST    1.39   2.09    9   43   13  43.0  46.0 1024.7 32.6  1.026 -99.9 -99.99 -9.99
2019/11/17 14:18 EST    1.30   1.96    8   33   12  43.2  45.9 1024.6 32.6  1.026 -99.9 -99.99 -9.99
2019/11/17 14:24 EST    1.22   1.94   10   36   17  43.0  45.9 1024.6 32.5  1.026 -99.9 -99.99 -9.99
2019/11/17 14:30 EST    1.13   1.85    8   42   15  43.2  45.7 1024.6 32.5  1.026 -99.9 -99.99 -9.99
2019/11/17 14:36 EST    1.05   1.80    7   45   11  43.3  45.7 1024.6 32.6  1.026 -99.9 -99.99 -9.99
2019/11/17 14:42 EST    0.97   1.69   11   48   13  43.3  45.5 1024.5 32.6  1.026 -99.9 -99.99 -9.99
2019/11/17 14:48 EST    0.90   1.63    9   49   17  43.3  45.5 1024.5 32.6  1.026 -99.9 -99.99 -9.99
2019/11/17 14:54 EST    0.83   1.53   11   51   15  43.2  45.5 1024.5 32.5  1.026 -99.9 -99.99 -9.99
2019/11/17 15:00 EST    0.76   1.54    9   55   17  43.0  45.5 1024.3 32.5  1.026 -99.9 -99.99 -9.99
2019/11/17 15:06 EST    0.70   1.52   12   67   15  42.8  45.3 1024.3 32.6  1.026 -99.9 -99.99 -9.99
2019/11/17 15:12 EST    0.64   1.37   10   63   17  42.8  45.3 1024.3 32.5  1.026 -99.9 -99.99 -9.99
2019/11/17 15:18 EST    0.59   1.40   12   65   16  42.6  45.3 1024.3 33.5  1.027 -99.9 -99.99 -9.99
2019/11/17 15:24 EST    0.54   1.34   12   74   17  42.4  45.1 1024.3 32.7  1.026 -99.9 -99.99 -9.99
2019/11/17 15:30 EST    0.50   1.30    8   59   17  42.6  45.1 1024.3 32.5  1.026 -99.9 -99.99 -9.99
2019/11/17 15:36 EST    0.46   1.33    9   56   18  42.6  45.0 1024.2 32.5  1.026 -99.9 -99.99 -9.99
2019/11/17 15:42 EST    0.43   1.24   12   47   18  42.4  44.8 1024.1 32.5  1.026 -99.9 -99.99 -9.99
2019/11/17 15:48 EST    0.40   1.23    8   58   14  42.4  44.8 1024.1 32.5  1.026 -99.9 -99.99 -9.99
2019/11/17 15:54 EST    0.38   1.24    8   49   14  42.6  44.8 1024.0 32.5  1.026 -99.9 -99.99 -9.99
2019/11/17 16:00 EST    0.36   1.19    9   55   14  42.4  44.8 1023.9 32.5  1.026 -99.9 -99.99 -9.99
2019/11/17 16:06 EST    0.34   1.19   10   55   15  42.3  44.8 1023.9 32.4  1.026 -99.9 -99.99 -9.99
2019/11/17 16:12 EST    0.33   1.20   10   53   16  42.3  44.8 1023.8 33.5  1.027 -99.9 -99.99 -9.99
2019/11/17 16:18 EST    0.32   1.15   12   63   19  42.3  44.6 1023.7 33.5  1.027 -99.9 -99.99 -9.99
2019/11/17 16:24 EST    0.32   1.21   11   58   16  42.3  44.6 1023.7 33.4  1.027 -99.9 -99.99 -9.99
2019/11/17 16:30 EST    0.32   1.18    7   50   13  42.1  44.4 1023.6 33.5  1.027 -99.9 -99.99 -9.99
2019/11/17 16:36 EST    0.32   1.23    9   53   12  42.1  44.2 1023.4 33.5  1.027 -99.9 -99.99 -9.99
2019/11/17 16:42 EST    0.32   1.23   12   45   17  42.1  44.1 1023.4 33.5  1.027 -99.9 -99.99 -9.99
2019/11/17 16:48 EST    0.33   1.20   12   57   17  42.1  44.2 1023.3 33.4  1.027 -99.9 -99.99 -9.99
2019/11/17 16:54 EST    0.34   1.20   11   45   16  42.1  44.2 1023.2 33.4  1.027 -99.9 -99.99 -9.99
2019/11/17 17:00 EST    0.35   1.21    9   42   15  41.9  44.4 1023.1 33.4  1.027 -99.9 -99.99 -9.99
2019/11/17 17:06 EST    0.37   1.21   11   47   15  41.9  44.4 1022.9 33.5  1.027 -99.9 -99.99 -9.99
2019/11/17 17:12 EST    0.38   1.23   13   38   17  41.7  45.3 1022.8 33.5  1.027 -99.9 -99.99 -9.99
2019/11/17 17:18 EST    0.40   1.29   13   44   17  41.7  45.5 1022.7 33.6  1.027 -99.9 -99.99 -9.99
2019/11/17 17:24 EST    0.42   1.29   11   37   17  41.7  45.7 1022.7 33.7  1.027 -99.9 -99.99 -9.99
2019/11/17 17:30 EST    0.43   1.34    9   35   14  41.5  45.7 1022.7 33.6  1.027 -99.9 -99.99 -9.99
2019/11/17 17:36 EST    0.45   1.36   11   38   14  41.5  45.7 1022.7 33.6  1.027 -99.9 -99.99 -9.99
2019/11/17 17:42 EST    0.47   1.32    9   43   14  41.5  45.7 1022.5 33.6  1.027 -99.9 -99.99 -9.99
2019/11/17 17:48 EST    0.49   1.36   12   37   18  41.5  45.7 1022.5 33.6  1.027 -99.9 -99.99 -9.99
2019/11/17 17:54 EST    0.52   1.40   10   41   14  41.5  45.7 1022.5 33.6  1.027 -99.9 -99.99 -9.99
2019/11/17 18:00 EST    0.54   1.36   11   46   15  41.5  45.7 1022.4 33.6  1.027 -99.9 -99.99 -9.99
2019/11/17 18:06 EST    0.56   1.35    9   41   15  41.5  45.7 1022.4 33.5  1.027 -99.9 -99.99 -9.99
2019/11/17 18:12 EST    0.58   1.47    9   34   19  41.5  46.0 1022.2 33.7  1.027 -99.9 -99.99 -9.99
2019/11/17 18:18 EST    0.61   1.46   11   38   16  41.5  46.2 1022.1 33.7  1.027 -99.9 -99.99 -9.99
2019/11/17 18:24 EST    0.63   1.50   11   39   18  41.5  46.4 1021.9 33.7  1.027 -99.9 -99.99 -9.99
2019/11/17 18:30 EST    0.65   1.56   12   36   18  41.7  46.6 1021.9 33.7  1.027 -99.9 -99.99 -9.99
2019/11/17 18:36 EST    0.68   1.49   13   32   16  41.7  46.4 1021.8 33.7  1.027 -99.9 -99.99 -9.99
2019/11/17 18:42 EST    0.71   1.53   11   36   17  41.7  46.4 1021.7 33.7  1.027 -99.9 -99.99 -9.99
2019/11/17 18:48 EST    0.74   1.61   13   37   17  41.7  46.6 1021.6 33.7  1.027 -99.9 -99.99 -9.99
2019/11/17 18:54 EST    0.77   1.64   14   34   17  41.7  46.6 1021.4 33.6  1.027 -99.9 -99.99 -9.99
2019/11/17 19:00 EST    0.80   1.66   13   32   19  41.9  46.6 1021.2 33.7  1.027 -99.9 -99.99 -9.99
2019/11/17 19:06 EST    0.83   1.78   14   32   17  41.9  46.9 1021.2 33.7  1.027 -99.9 -99.99 -9.99
2019/11/17 19:12 EST    0.86   1.75   12   31   16  41.9  46.6 1021.3 33.7  1.027 -99.9 -99.99 -9.99
2019/11/17 19:18 EST    0.90   1.82   13   31   15  41.9  46.8 1021.2 33.6  1.027 -99.9 -99.99 -9.99
2019/11/17 19:24 EST    0.94   1.91   10   34   15  41.9  46.8 1021.1 33.7  1.027 -99.9 -99.99 -9.99
2019/11/17 19:30 EST    0.98   1.88   11   39   15  41.9  46.9 1021.2 33.7  1.027 -99.9 -99.99 -9.99
2019/11/17 19:36 EST    1.02   2.00   11   33   16  41.9  46.9 1021.1 33.7  1.027 -99.9 -99.99 -9.99
2019/11/17 19:42 EST    1.07   2.00   11   29   15  42.1  46.9 1021.0 33.7  1.027 -99.9 -99.99 -9.99
2019/11/17 19:48 EST    1.12   2.10   11   32   18  42.1  46.9 1020.9 33.7  1.027 -99.9 -99.99 -9.99
2019/11/17 19:54 EST    1.17   2.16   10   29   15  42.3  46.8 1020.7 33.7  1.027 -99.9 -99.99 -9.99
2019/11/17 20:00 EST    1.22   2.26   11   29   15  42.3  46.9 1020.6 33.7  1.027 -99.9 -99.99 -9.99
2019/11/17 20:06 EST    1.28   2.34    9   32   16  42.3  46.9 1020.5 33.5  1.027 -99.9 -99.99 -9.99
2019/11/17 20:12 EST    1.34   2.35   11   38   17  42.4  46.9 1020.4 33.5  1.027 -99.9 -99.99 -9.99
2019/11/17 20:18 EST    1.40   2.44   11   34   16  42.6  46.8 1020.2 33.5  1.027 -99.9 -99.99 -9.99
2019/11/17 20:24 EST    1.46   2.49   10   32   16  42.4  46.9 1020.1 33.5  1.027 -99.9 -99.99 -9.99
2019/11/17 20:30 EST    1.53   2.57   11   31   16  42.6  46.9 1019.9 33.3  1.027 -99.9 -99.99 -9.99
2019/11/17 20:36 EST    1.60   2.61   10   33   19  42.6  46.8 1019.7 33.5  1.027 -99.9 -99.99 -9.99
2019/11/17 20:42 EST    1.67   2.75   13   33   17  42.6  46.9 1019.6 33.4  1.027 -99.9 -99.99 -9.99
2019/11/17 20:48 EST    1.74   2.90   14   31   18  42.6  46.9 1019.5 33.6  1.027 -99.9 -99.99 -9.99
2019/11/17 20:54 EST    1.81   2.90   11   31   16  42.8  46.9 1019.4 33.4  1.027 -99.9 -99.99 -9.99
2019/11/17 21:00 EST    1.89   3.09   13   37   17  42.8  46.9 1019.3 33.5  1.027 -99.9 -99.99 -9.99
2019/11/17 21:06 EST    1.96   3.14   11   24   16  43.0  46.9 1019.3 33.5  1.027 -99.9 -99.99 -9.99
2019/11/17 21:12 EST    2.04   3.14   11   29   15  43.0  46.9 1019.1 33.4  1.027 -99.9 -99.99 -9.99
2019/11/17 21:18 EST    2.12   3.32   10   31   16  43.0  46.9 1019.0 33.5  1.027 -99.9 -99.99 -9.99
2019/11/17 21:24 EST    2.19   3.37   10   32   20  43.0  46.8 1018.9 33.4  1.027 -99.9 -99.99 -9.99
2019/11/17 21:30 EST    2.27   3.42   11   28   14  43.3  46.9 1018.9 33.2  1.027 -99.9 -99.99 -9.99
2019/11/17 21:36 EST    2.35   3.59   11   28   15  43.2  46.8 1018.9 33.2  1.027 -99.9 -99.99 -9.99
2019/11/17 21:42 EST    2.42   3.67   10   30   16  43.3  46.9 1018.8 33.5  1.027 -99.9 -99.99 -9.99
2019/11/17 21:48 EST    2.50   3.73   11   28   15  43.5  46.8 1018.8 33.6  1.027 -99.9 -99.99 -9.99
2019/11/17 21:54 EST    2.57   3.83   11   28   15  43.5  46.9 1018.7 33.6  1.027 -99.9 -99.99 -9.99
2019/11/17 22:00 EST    2.64   3.87   12   26   16  43.7  47.1 1018.6 33.6  1.027 -99.9 -99.99 -9.99
2019/11/17 22:06 EST    2.71   3.89   13   28   16  43.5  47.1 1018.6 33.7  1.027 -99.9 -99.99 -9.99
2019/11/17 22:12 EST    2.78   4.00   12   25   17  43.7  47.1 1018.5 33.6  1.027 -99.9 -99.99 -9.99
2019/11/17 22:18 EST    2.84   4.07   12   32   15  43.7  46.9 1018.4 33.6  1.027 -99.9 -99.99 -9.99
2019/11/17 22:24 EST    2.90   4.08   12   24   17  43.7  47.1 1018.2 33.6  1.027 -99.9 -99.99 -9.99
2019/11/17 22:30 EST    2.96   4.20   14   29   18  43.9  47.1 1018.1 33.7  1.027 -99.9 -99.99 -9.99
2019/11/17 22:36 EST    3.01   4.25   11   28   17  43.9  46.9 1018.0 33.7  1.027 -99.9 -99.99 -9.99
2019/11/17 22:42 EST    3.05   4.21   13   28   19  43.9  47.3 1017.9 33.6  1.027 -99.9 -99.99 -9.99
2019/11/17 22:48 EST    3.10   4.29   14   29   18  43.9  47.1 1017.8 33.7  1.027 -99.9 -99.99 -9.99
2019/11/17 22:54 EST    3.13   4.33   11   28   18  44.1  47.3 1017.7 33.6  1.027 -99.9 -99.99 -9.99
2019/11/17 23:00 EST    3.17   4.34   13   28   17  44.1  47.3 1017.6 33.6  1.027 -99.9 -99.99 -9.99
2019/11/17 23:06 EST    3.19   4.33   14   27   19  44.2  47.7 1017.4 33.6  1.027 -99.9 -99.99 -9.99
2019/11/17 23:12 EST    3.21   4.36   12   28   17  44.1  47.5 1017.3 33.6  1.027 -99.9 -99.99 -9.99
2019/11/17 23:18 EST    3.23   4.37   11   27   17  44.2  47.3 1017.2 33.5  1.027 -99.9 -99.99 -9.99
2019/11/17 23:24 EST    3.24   4.39   13   30   17  44.2  47.1 1017.2 33.6  1.027 -99.9 -99.99 -9.99
2019/11/17 23:30 EST    3.24   4.37   11   29   19  44.4  47.1 1017.0 33.6  1.027 -99.9 -99.99 -9.99
2019/11/17 23:36 EST    3.24   4.36   13   24   17  44.4  47.3 1017.0 33.5  1.027 -99.9 -99.99 -9.99
2019/11/17 23:42 EST    3.23   4.37   13   29   16  44.4  47.1 1017.0 33.6  1.027 -99.9 -99.99 -9.99
2019/11/17 23:48 EST    3.21   4.35   13   24   16  44.4  47.1 1016.8 33.6  1.027 -99.9 -99.99 -9.99
2019/11/17 23:54 EST    3.19   4.30   13   30   20  44.4  47.1 1016.7 33.6  1.027 -99.9 -99.99 -9.99
2019/11/18 00:00 EST    3.16   4.27   13   33   19  44.4  47.3 1016.7 33.0  1.027 -99.9 -99.99 -9.99
2019/11/18 00:06 EST    3.13   4.25   14   28   19  44.4  47.1 1016.6 33.8  1.027 -99.9 -99.99 -9.99
2019/11/18 00:12 EST    3.09   4.20   13   35   18  44.4  47.1 1016.5 33.8  1.027 -99.9 -99.99 -9.99
2019/11/18 00:18 EST    3.04   4.14   13   26   20  44.4  47.1 1016.5 33.8  1.027 -99.9 -99.99 -9.99
2019/11/18 00:24 EST    2.99   4.05   11   27   18  44.4  47.1 1016.4 33.8  1.027 -99.9 -99.99 -9.99
2019/11/18 00:30 EST    2.94   4.00   12   31   16  44.4  47.1 1016.2 33.7  1.027 -99.9 -99.99 -9.99
2019/11/18 00:36 EST    2.87   3.96   14   28   17  44.6  47.1 1016.0 33.7  1.027 -99.9 -99.99 -9.99
2019/11/18 00:42 EST    2.81   3.89   11   23   18  44.6  46.9 1015.9 33.7  1.027 -99.9 -99.99 -9.99
2019/11/18 00:48 EST    2.74   3.80   11   21   17  44.6  46.9 1015.8 33.7  1.027 -99.9 -99.99 -9.99
2019/11/18 00:54 EST    2.66   3.76   14   22   18  44.6  46.8 1015.8 33.8  1.027 -99.9 -99.99 -9.99
2019/11/18 01:00 EST    2.58   3.66   13   23   20  44.6  46.8 1015.6 33.7  1.027 -99.9 -99.99 -9.99
2019/11/18 01:06 EST    2.50 -99.99 -999 -999 -999 -99.9 -99.9 -999.9 -9.9 -9.999 -99.9 -99.99 -9.99
2019/11/18 01:12 EST    2.42 -99.99 -999 -999 -999 -99.9 -99.9 -999.9 -9.9 -9.999 -99.9 -99.99 -9.99
2019/11/18 01:18 EST    2.33 -99.99 -999 -999 -999 -99.9 -99.9 -999.9 -9.9 -9.999 -99.9 -99.99 -9.99
2019/11/18 01:24 EST    2.24 -99.99 -999 -999 -999 -99.9 -99.9 -999.9 -9.9 -9.999 -99.9 -99.99 -9.99
2019/11/18 01:30 EST    2.15 -99.99 -999 -999 -999 -99.9 -99.9 -999.9 -9.9 -9.999 -99.9 -99.99 -9.99
2019/11/18 01:36 EST    2.05 -99.99 -999 -999 -999 -99.9 -99.9 -999.9 -9.9 -9.999 -99.9 -99.99 -9.99
2019/11/18 01:42 EST    1.96 -99.99 -999 -999 -999 -99.9 -99.9 -999.9 -9.9 -9.999 -99.9 -99.99 -9.99
2019/11/18 01:48 EST    1.86 -99.99 -999 -999 -999 -99.9 -99.9 -999.9 -9.9 -9.999 -99.9 -99.99 -9.99
2019/11/18 01:54 EST    1.77 -99.99 -999 -999 -999 -99.9 -99.9 -999.9 -9.9 -9.999 -99.9 -99.99 -9.99
2019/11/18 02:00 EST    1.67 -99.99 -999 -999 -999 -99.9 -99.9 -999.9 -9.9 -9.999 -99.9 -99.99 -9.99
2019/11/18 02:06 EST    1.58 -99.99 -999 -999 -999 -99.9 -99.9 -999.9 -9.9 -9.999 -99.9 -99.99 -9.99
2019/11/18 02:12 EST    1.48 -99.99 -999 -999 -999 -99.9 -99.9 -999.9 -9.9 -9.999 -99.9 -99.99 -9.99
2019/11/18 02:18 EST    1.39 -99.99 -999 -999 -999 -99.9 -99.9 -999.9 -9.9 -9.999 -99.9 -99.99 -9.99
2019/11/18 02:24 EST    1.29 -99.99 -999 -999 -999 -99.9 -99.9 -999.9 -9.9 -9.999 -99.9 -99.99 -9.99
2019/11/18 02:30 EST    1.20 -99.99 -999 -999 -999 -99.9 -99.9 -999.9 -9.9 -9.999 -99.9 -99.99 -9.99
2019/11/18 02:36 EST    1.12 -99.99 -999 -999 -999 -99.9 -99.9 -999.9 -9.9 -9.999 -99.9 -99.99 -9.99
2019/11/18 02:42 EST    1.03 -99.99 -999 -999 -999 -99.9 -99.9 -999.9 -9.9 -9.999 -99.9 -99.99 -9.99
2019/11/18 02:48 EST    0.95 -99.99 -999 -999 -999 -99.9 -99.9 -999.9 -9.9 -9.999 -99.9 -99.99 -9.99
2019/11/18 02:54 EST    0.87 -99.99 -999 -999 -999 -99.9 -99.9 -999.9 -9.9 -9.999 -99.9 -99.99 -9.99
2019/11/18 03:00 EST    0.79 -99.99 -999 -999 -999 -99.9 -99.9 -999.9 -9.9 -9.999 -99.9 -99.99 -9.99
2019/11/18 03:06 EST    0.72 -99.99 -999 -999 -999 -99.9 -99.9 -999.9 -9.9 -9.999 -99.9 -99.99 -9.99
2019/11/18 03:12 EST    0.66 -99.99 -999 -999 -999 -99.9 -99.9 -999.9 -9.9 -9.999 -99.9 -99.99 -9.99
2019/11/18 03:18 EST    0.59 -99.99 -999 -999 -999 -99.9 -99.9 -999.9 -9.9 -9.999 -99.9 -99.99 -9.99
2019/11/18 03:24 EST    0.54 -99.99 -999 -999 -999 -99.9 -99.9 -999.9 -9.9 -9.999 -99.9 -99.99 -9.99
2019/11/18 03:30 EST    0.48 -99.99 -999 -999 -999 -99.9 -99.9 -999.9 -9.9 -9.999 -99.9 -99.99 -9.99
2019/11/18 03:36 EST    0.44 -99.99 -999 -999 -999 -99.9 -99.9 -999.9 -9.9 -9.999 -99.9 -99.99 -9.99
2019/11/18 03:42 EST    0.39 -99.99 -999 -999 -999 -99.9 -99.9 -999.9 -9.9 -9.999 -99.9 -99.99 -9.99
2019/11/18 03:48 EST    0.36 -99.99 -999 -999 -999 -99.9 -99.9 -999.9 -9.9 -9.999 -99.9 -99.99 -9.99
2019/11/18 03:54 EST    0.33 -99.99 -999 -999 -999 -99.9 -99.9 -999.9 -9.9 -9.999 -99.9 -99.99 -9.99
2019/11/18 04:00 EST    0.30 -99.99 -999 -999 -999 -99.9 -99.9 -999.9 -9.9 -9.999 -99.9 -99.99 -9.99
2019/11/18 04:06 EST    0.28 -99.99 -999 -999 -999 -99.9 -99.9 -999.9 -9.9 -9.999 -99.9 -99.99 -9.99
2019/11/18 04:12 EST    0.26 -99.99 -999 -999 -999 -99.9 -99.9 -999.9 -9.9 -9.999 -99.9 -99.99 -9.99
2019/11/18 04:18 EST    0.25 -99.99 -999 -999 -999 -99.9 -99.9 -999.9 -9.9 -9.999 -99.9 -99.99 -9.99
2019/11/18 04:24 EST    0.25 -99.99 -999 -999 -999 -99.9 -99.9 -999.9 -9.9 -9.999 -99.9 -99.99 -9.99
2019/11/18 04:30 EST    0.25 -99.99 -999 -999 -999 -99.9 -99.9 -999.9 -9.9 -9.999 -99.9 -99.99 -9.99
2019/11/18 04:36 EST    0.25 -99.99 -999 -999 -999 -99.9 -99.9 -999.9 -9.9 -9.999 -99.9 -99.99 -9.99
2019/11/18 04:42 EST    0.26 -99.99 -999 -999 -999 -99.9 -99.9 -999.9 -9.9 -9.999 -99.9 -99.99 -9.99
2019/11/18 04:48 EST    0.27 -99.99 -999 -999 -999 -99.9 -99.9 -999.9 -9.9 -9.999 -99.9 -99.99 -9.99
2019/11/18 04:54 EST    0.29 -99.99 -999 -999 -999 -99.9 -99.9 -999.9 -9.9 -9.999 -99.9 -99.99 -9.99
2019/11/18 05:00 EST    0.31 -99.99 -999 -999 -999 -99.9 -99.9 -999.9 -9.9 -9.999 -99.9 -99.99 -9.99
2019/11/18 05:06 EST    0.34 -99.99 -999 -999 -999 -99.9 -99.9 -999.9 -9.9 -9.999 -99.9 -99.99 -9.99
2019/11/18 05:12 EST    0.36 -99.99 -999 -999 -999 -99.9 -99.9 -999.9 -9.9 -9.999 -99.9 -99.99 -9.99
2019/11/18 05:18 EST    0.39 -99.99 -999 -999 -999 -99.9 -99.9 -999.9 -9.9 -9.999 -99.9 -99.99 -9.99
2019/11/18 05:24 EST    0.42 -99.99 -999 -999 -999 -99.9 -99.9 -999.9 -9.9 -9.999 -99.9 -99.99 -9.99
2019/11/18 05:30 EST    0.46 -99.99 -999 -999 -999 -99.9 -99.9 -999.9 -9.9 -9.999 -99.9 -99.99 -9.99
2019/11/18 05:36 EST    0.49 -99.99 -999 -999 -999 -99.9 -99.9 -999.9 -9.9 -9.999 -99.9 -99.99 -9.99
2019/11/18 05:42 EST    0.53 -99.99 -999 -999 -999 -99.9 -99.9 -999.9 -9.9 -9.999 -99.9 -99.99 -9.99
2019/11/18 05:48 EST    0.57 -99.99 -999 -999 -999 -99.9 -99.9 -999.9 -9.9 -9.999 -99.9 -99.99 -9.99
2019/11/18 05:54 EST    0.61 -99.99 -999 -999 -999 -99.9 -99.9 -999.9 -9.9 -9.999 -99.9 -99.99 -9.99
2019/11/18 06:00 EST    0.65 -99.99 -999 -999 -999 -99.9 -99.9 -999.9 -9.9 -9.999 -99.9 -99.99 -9.99
2019/11/18 06:06 EST    0.69 -99.99 -999 -999 -999 -99.9 -99.9 -999.9 -9.9 -9.999 -99.9 -99.99 -9.99
2019/11/18 06:12 EST    0.73 -99.99 -999 -999 -999 -99.9 -99.9 -999.9 -9.9 -9.999 -99.9 -99.99 -9.99
2019/11/18 06:18 EST    0.77 -99.99 -999 -999 -999 -99.9 -99.9 -999.9 -9.9 -9.999 -99.9 -99.99 -9.99
2019/11/18 06:24 EST    0.81 -99.99 -999 -999 -999 -99.9 -99.9 -999.9 -9.9 -9.999 -99.9 -99.99 -9.99
2019/11/18 06:30 EST    0.86 -99.99 -999 -999 -999 -99.9 -99.9 -999.9 -9.9 -9.999 -99.9 -99.99 -9.99
2019/11/18 06:36 EST    0.90 -99.99 -999 -999 -999 -99.9 -99.9 -999.9 -9.9 -9.999 -99.9 -99.99 -9.99
2019/11/18 06:42 EST    0.94 -99.99 -999 -999 -999 -99.9 -99.9 -999.9 -9.9 -9.999 -99.9 -99.99 -9.99
2019/11/18 06:48 EST    0.98 -99.99 -999 -999 -999 -99.9 -99.9 -999.9 -9.9 -9.999 -99.9 -99.99 -9.99
2019/11/18 06:54 EST    1.03 -99.99 -999 -999 -999 -99.9 -99.9 -999.9 -9.9 -9.999 -99.9 -99.99 -9.99
2019/11/18 07:00 EST    1.07 -99.99 -999 -999 -999 -99.9 -99.9 -999.9 -9.9 -9.999 -99.9 -99.99 -9.99
2019/11/18 07:06 EST    1.12 -99.99 -999 -999 -999 -99.9 -99.9 -999.9 -9.9 -9.999 -99.9 -99.99 -9.99
2019/11/18 07:12 EST    1.16 -99.99 -999 -999 -999 -99.9 -99.9 -999.9 -9.9 -9.999 -99.9 -99.99 -9.99
2019/11/18 07:18 EST    1.21 -99.99 -999 -999 -999 -99.9 -99.9 -999.9 -9.9 -9.999 -99.9 -99.99 -9.99